Suncadia, Washington
Current Conditions -  °F | °C
As of 5:53 PM on Thursday 20 Nov 2014 (Local Time) from KELN Reporting Station
Haze Haze  
Wind Chill: 28°   Ceiling: 10000
Heat Index: 33°   Visibility: 6mi
Dew Point: 25°   Wind: 6mph
Humidity: 72%   Direction: 50°NE
Pressure: 30"   Gusts: NA
Location:  47.3367°N, 121.023°W
Report Text: KELN 210153Z AUTO 05005KT 6SM HZ OVC100 01/M04 A3000 RMK AO2 SLP174 T00061039
Loading
Personal Weather Stations






























Interactive Weather Map New forecast layout! Learn more

10-Day Weather Forecast

Advertisements
Track Severe Weather on mobile